Melbourne, Washington
Current Conditions -  °F | °C
As of 12:53 AM on Saturday 29 Nov 2014 (Local Time) from KSHN Reporting Station
Overcast Overcast  
Wind Chill: 28°   Ceiling: 9500
Heat Index: 36°   Visibility: 10mi
Dew Point: 32°   Wind: 10mph
Humidity: 86%   Direction: 220°SW
Pressure: 29.53"   Gusts: NA
Location:  47.555°N, 123.746°W
Report Text: KSHN 290853Z AUTO 22009KT 10SM OVC095 02/00 A2953 RMK AO2 SLP004 T00220000 53008
Loading
Personal Weather Stations






























Interactive Weather Map New forecast layout! Learn more

10-Day Weather Forecast

Advertisements
Track Severe Weather on mobile